Time;durP1;ratioP1;P1;durP2;ratioP2;P2;SDS_P1;SDS_P2;PMS_P1;PMS_P2;Temp;Humidity;BMP_temperature;BMP_pressure;BME280_temperature;BME280_humidity;BME280_pressure;Samples;Min_cycle;Max_cycle;Signal;HPM_P1;HPM_P2
2023/09/19 00:00:37;;;;;;;1.83;1.08;;;20.20;69.20;;;;;;5013999;28;20046;-79
2023/09/19 00:03:04;;;;;;;1.67;0.90;;;20.20;69.20;;;;;;5013891;28;20045;-78
2023/09/19 00:05:34;;;;;;;1.98;1.00;;;20.20;69.20;;;;;;5013128;28;20124;-79
2023/09/19 00:08:01;;;;;;;2.17;0.98;;;20.20;69.20;;;;;;4997487;28;20106;-79
2023/09/19 00:10:31;;;;;;;1.17;0.90;;;20.10;69.20;;;;;;5014261;28;20022;-78
2023/09/19 00:13:05;;;;;;;1.40;1.00;;;20.10;69.20;;;;;;4981011;28;20045;-79
2023/09/19 00:15:35;;;;;;;1.43;1.00;;;20.10;69.20;;;;;;4996737;28;20479;-78
2023/09/19 00:18:01;;;;;;;1.38;0.90;;;20.10;69.30;;;;;;5012493;28;20041;-79
2023/09/19 00:20:29;;;;;;;3.03;1.30;;;20.10;69.30;;;;;;4980197;28;20041;-79
2023/09/19 00:22:55;;;;;;;1.52;1.00;;;20.10;69.30;;;;;;5014155;28;20081;-78
2023/09/19 00:25:21;;;;;;;1.33;1.00;;;20.10;69.30;;;;;;4980334;28;20037;-78
2023/09/19 00:27:49;;;;;;;1.85;1.10;;;20.00;69.30;;;;;;4996027;28;20042;-79
2023/09/19 00:30:19;;;;;;;2.10;0.98;;;20.00;69.30;;;;;;4980397;28;20034;-78
2023/09/19 00:32:54;;;;;;;1.80;1.30;;;20.00;69.40;;;;;;4997412;28;20042;-79
2023/09/19 00:35:20;;;;;;;;;;;20.00;69.40;;;;;;4980763;28;20041;-78
2023/09/19 00:37:46;;;;;;;1.38;0.93;;;19.90;69.20;;;;;;4996385;28;19961;-78
2023/09/19 00:40:12;;;;;;;1.88;1.10;;;19.90;69.20;;;;;;5012508;28;20513;-79
2023/09/19 00:42:39;;;;;;;2.55;1.15;;;19.90;69.30;;;;;;4980003;28;20109;-79
2023/09/19 00:45:09;;;;;;;2.70;1.30;;;19.90;69.40;;;;;;4995901;28;20104;-79
2023/09/19 00:47:35;;;;;;;2.05;1.30;;;19.90;69.50;;;;;;5012554;28;20034;-79
2023/09/19 00:50:03;;;;;;;2.15;1.20;;;19.90;69.50;;;;;;4996451;28;20127;-78
2023/09/19 00:52:29;;;;;;;1.77;1.08;;;19.90;69.50;;;;;;4996469;28;20028;-78
2023/09/19 00:54:55;;;;;;;2.65;1.30;;;19.90;69.50;;;;;;4980016;28;20120;-78
2023/09/19 00:57:22;;;;;;;2.53;1.23;;;19.80;69.50;;;;;;4984501;28;20088;-79
2023/09/19 00:59:50;;;;;;;2.28;1.10;;;19.80;69.50;;;;;;4984657;28;20042;-78
2023/09/19 01:02:16;;;;;;;2.30;1.30;;;19.80;69.60;;;;;;5017671;28;20374;-79
2023/09/19 01:04:42;;;;;;;2.85;1.15;;;19.80;69.60;;;;;;5017489;28;20070;-78
2023/09/19 01:07:09;;;;;;;1.17;0.95;;;19.80;69.60;;;;;;5000053;28;20148;-78
2023/09/19 01:09:35;;;;;;;1.20;0.90;;;19.80;69.60;;;;;;5015941;28;20036;-79
2023/09/19 01:12:04;;;;;;;1.90;1.05;;;19.80;69.60;;;;;;5017271;28;20030;-78
2023/09/19 01:14:52;;;;;;;2.25;1.25;;;19.80;69.70;;;;;;5017509;28;20050;-79
2023/09/19 01:17:30;;;;;;;2.42;1.25;;;19.70;69.70;;;;;;5015809;28;20076;-79
2023/09/19 01:20:08;;;;;;;1.60;1.20;;;19.70;69.70;;;;;;5015590;28;20030;-79
2023/09/19 01:22:56;;;;;;;1.92;1.08;;;19.70;69.70;;;;;;5017130;28;20113;-78
2023/09/19 01:25:48;;;;;;;2.75;1.23;;;19.70;69.70;;;;;;4999428;28;20044;-79
2023/09/19 01:28:47;;;;;;;2.15;1.15;;;19.70;69.80;;;;;;5015828;28;20125;-79
2023/09/19 01:31:14;;;;;;;2.53;1.17;;;19.70;69.80;;;;;;4998847;28;20076;-78
2023/09/19 01:34:03;;;;;;;2.30;1.10;;;19.70;69.70;;;;;;5016790;28;20073;-79
2023/09/19 01:36:35;;;;;;;3.33;1.30;;;19.70;69.80;;;;;;4999003;28;20442;-79
2023/09/19 01:39:12;;;;;;;3.15;1.20;;;19.60;69.70;;;;;;5000024;28;20061;-79
2023/09/19 01:41:45;;;;;;;1.58;1.27;;;19.60;69.80;;;;;;4999206;28;20030;-78
2023/09/19 01:44:29;;;;;;;2.03;1.25;;;19.60;69.80;;;;;;5020704;28;20046;-78
2023/09/19 01:47:03;;;;;;;3.03;1.20;;;19.60;69.80;;;;;;5017458;28;20113;-77
2023/09/19 01:49:46;;;;;;;2.30;1.20;;;19.60;69.80;;;;;;5017399;28;20061;-79
2023/09/19 01:52:16;;;;;;;1.98;1.00;;;19.60;69.90;;;;;;5015622;28;20052;-79
2023/09/19 01:55:07;;;;;;;1.92;1.13;;;19.50;69.80;;;;;;5014911;28;20087;-79
2023/09/19 01:57:46;;;;;;;3.05;1.15;;;19.50;69.90;;;;;;4997795;28;20061;-79
2023/09/19 02:00:14;;;;;;;3.03;1.50;;;19.50;69.80;;;;;;5014382;28;20103;-79
2023/09/19 02:02:44;;;;;;;2.53;1.17;;;19.50;69.80;;;;;;4981533;28;20026;-80
2023/09/19 02:05:11;;;;;;;2.30;1.20;;;19.50;69.80;;;;;;5015104;28;20129;-79
2023/09/19 02:07:40;;;;;;;2.75;1.35;;;19.50;69.80;;;;;;4981321;28;20038;-79
2023/09/19 02:10:07;;;;;;;3.00;1.35;;;19.50;69.80;;;;;;4997653;28;20026;-79
2023/09/19 02:12:34;;;;;;;3.65;1.30;;;19.50;69.80;;;;;;4981637;28;20492;-79
2023/09/19 02:15:03;;;;;;;2.15;1.35;;;19.50;69.80;;;;;;4998834;28;20359;-79
2023/09/19 02:17:31;;;;;;;2.95;1.30;;;19.40;69.80;;;;;;4997041;28;20034;-80
2023/09/19 02:19:56;;;;;;;3.45;1.23;;;19.40;69.80;;;;;;4981470;28;20124;-80
2023/09/19 02:22:22;;;;;;;3.05;1.40;;;19.40;69.80;;;;;;4997377;28;20438;-79
2023/09/19 02:24:48;;;;;;;3.03;1.40;;;19.40;69.80;;;;;;5013766;28;20029;-80
2023/09/19 02:27:16;;;;;;;3.97;1.35;;;19.40;69.80;;;;;;4982167;28;20096;-79
2023/09/19 02:29:42;;;;;;;3.15;1.45;;;19.40;69.80;;;;;;4997406;28;20104;-79
2023/09/19 02:32:11;;;;;;;2.38;1.10;;;19.40;69.80;;;;;;5014371;28;20044;-80
2023/09/19 02:34:38;;;;;;;2.38;1.23;;;19.40;69.80;;;;;;4981403;28;20032;-79
2023/09/19 02:37:13;;;;;;;3.00;1.58;;;19.30;69.70;;;;;;5013452;28;20025;-79
2023/09/19 02:39:39;;;;;;;2.97;1.48;;;19.30;69.80;;;;;;4997794;28;20030;-79
2023/09/19 02:42:05;;;;;;;3.70;1.48;;;19.30;69.70;;;;;;4980783;28;20026;-79
2023/09/19 02:44:31;;;;;;;2.90;1.25;;;19.30;69.70;;;;;;4957376;28;1179244;-80
2023/09/19 02:46:57;;;;;;;2.72;1.52;;;19.30;69.80;;;;;;5015842;28;20494;-79
2023/09/19 02:49:23;;;;;;;1.88;1.23;;;19.30;69.80;;;;;;5016088;28;20038;-79
2023/09/19 02:51:49;;;;;;;5.57;1.35;;;19.20;69.70;;;;;;4981711;28;20347;-79
2023/09/19 02:54:15;;;;;;;2.47;1.50;;;19.20;69.70;;;;;;5014131;28;20087;-79
2023/09/19 02:56:41;;;;;;;2.20;1.10;;;19.20;69.70;;;;;;4997853;28;20088;-79
2023/09/19 02:59:09;;;;;;;1.92;1.27;;;19.20;69.70;;;;;;4981620;28;20073;-79
2023/09/19 03:01:38;;;;;;;2.25;1.25;;;19.20;69.70;;;;;;4982310;28;20046;-79
2023/09/19 03:04:06;;;;;;;2.65;1.27;;;19.10;69.60;;;;;;5015172;28;20137;-79
2023/09/19 03:06:32;;;;;;;1.60;0.98;;;19.20;69.70;;;;;;5013994;28;20497;-79
2023/09/19 03:08:59;;;;;;;2.60;1.30;;;19.10;69.70;;;;;;4997425;28;20124;-79
2023/09/19 03:11:26;;;;;;;1.77;1.23;;;19.10;69.70;;;;;;5013480;28;20100;-79
2023/09/19 03:13:55;;;;;;;1.98;1.20;;;19.10;69.70;;;;;;4998254;28;20553;-79
2023/09/19 03:16:25;;;;;;;1.60;1.20;;;19.10;69.70;;;;;;4965298;28;20191;-79
2023/09/19 03:18:54;;;;;;;2.05;1.20;;;19.10;69.70;;;;;;4980637;28;20540;-79
2023/09/19 03:21:22;;;;;;;1.77;1.10;;;19.00;69.70;;;;;;4982352;28;20100;-79
2023/09/19 03:23:48;;;;;;;3.67;1.52;;;19.00;69.70;;;;;;5014882;28;20479;-79
2023/09/19 03:26:16;;;;;;;2.67;1.17;;;19.00;69.70;;;;;;5013694;28;20026;-79
2023/09/19 03:28:43;;;;;;;1.50;0.90;;;19.00;69.70;;;;;;4981609;28;20116;-78
2023/09/19 03:31:10;;;;;;;2.10;1.15;;;19.00;69.60;;;;;;5014590;28;20400;-79
2023/09/19 03:33:37;;;;;;;2.53;1.23;;;18.90;69.60;;;;;;4997186;28;20483;-78
2023/09/19 03:36:07;;;;;;;3.38;1.48;;;18.90;69.60;;;;;;5013366;28;20061;-79
2023/09/19 03:38:36;;;;;;;2.47;1.20;;;18.90;69.60;;;;;;5013527;28;20038;-78
2023/09/19 03:41:03;;;;;;;2.75;1.20;;;18.90;69.60;;;;;;4996758;28;20065;-78
2023/09/19 03:43:28;;;;;;;1.85;1.30;;;18.90;69.60;;;;;;4980417;28;20041;-79
2023/09/19 03:45:54;;;;;;;2.35;1.30;;;18.90;69.60;;;;;;5013270;28;20545;-79
2023/09/19 03:48:22;;;;;;;2.72;1.45;;;18.80;69.50;;;;;;4980547;28;20052;-79
2023/09/19 03:50:49;;;;;;;1.67;1.23;;;18.80;69.50;;;;;;5013353;28;20137;-78
2023/09/19 03:53:16;;;;;;;2.10;1.10;;;18.80;69.50;;;;;;4997008;28;20041;-79
2023/09/19 03:55:41;;;;;;;3.22;1.33;;;18.80;69.50;;;;;;4996770;28;20034;-79
2023/09/19 03:58:07;;;;;;;3.00;1.30;;;18.80;69.50;;;;;;4997361;28;20120;-78
2023/09/19 04:00:34;;;;;;;4.18;1.33;;;18.80;69.50;;;;;;4981229;28;20531;-78
2023/09/19 04:03:02;;;;;;;3.38;1.25;;;18.70;69.50;;;;;;4981400;28;20375;-79
2023/09/19 04:05:28;;;;;;;2.45;1.10;;;18.70;69.50;;;;;;4996560;28;20105;-79
2023/09/19 04:07:53;;;;;;;2.35;1.30;;;18.70;69.50;;;;;;5014078;28;20061;-79
2023/09/19 04:10:20;;;;;;;4.72;1.38;;;18.70;69.50;;;;;;4980656;28;20026;-79
2023/09/19 04:12:56;;;;;;;2.95;1.33;;;18.70;69.50;;;;;;4980634;28;20045;-79
2023/09/19 04:15:23;;;;;;;1.15;1.05;;;18.60;69.40;;;;;;5013931;28;20064;-79
2023/09/19 04:17:51;;;;;;;2.70;1.40;;;18.60;69.40;;;;;;4996456;28;20033;-79
2023/09/19 04:20:20;;;;;;;2.70;1.33;;;18.60;69.40;;;;;;5013707;28;20060;-79
2023/09/19 04:22:49;;;;;;;2.15;1.23;;;18.60;69.40;;;;;;4980293;28;20061;-79
2023/09/19 04:25:15;;;;;;;2.65;1.50;;;18.50;69.40;;;;;;5012543;28;20030;-79
2023/09/19 04:27:44;;;;;;;2.65;1.20;;;18.50;69.40;;;;;;5013775;28;20038;-81
2023/09/19 04:30:11;;;;;;;4.22;1.38;;;18.50;69.40;;;;;;4996371;28;20034;-81
2023/09/19 04:32:41;;;;;;;2.63;1.27;;;18.50;69.40;;;;;;5013792;28;20029;-80
2023/09/19 04:35:09;;;;;;;3.17;1.33;;;18.50;69.40;;;;;;5013810;28;20068;-80
2023/09/19 04:37:43;;;;;;;2.28;1.10;;;18.50;69.40;;;;;;5013775;28;20042;-81
2023/09/19 04:40:14;;;;;;;;;;;18.40;69.40;;;;;;4997190;28;20120;-80
2023/09/19 04:42:43;;;;;;;2.03;1.20;;;18.40;69.30;;;;;;4996433;28;19913;-79
2023/09/19 04:45:10;;;;;;;2.17;1.20;;;18.30;69.20;;;;;;4963777;28;20058;-79
2023/09/19 04:47:39;;;;;;;2.13;1.20;;;18.40;69.40;;;;;;4996189;28;20045;-79
2023/09/19 04:50:07;;;;;;;2.38;1.27;;;18.30;69.30;;;;;;4996563;28;20034;-79
2023/09/19 04:52:33;;;;;;;1.98;1.23;;;18.30;69.40;;;;;;4996111;28;20030;-80
2023/09/19 04:54:59;;;;;;;2.22;1.20;;;18.30;69.30;;;;;;4996413;28;20041;-82
2023/09/19 04:57:25;;;;;;;2.92;1.33;;;18.30;69.30;;;;;;5012024;28;20041;-81
2023/09/19 04:59:51;;;;;;;2.58;1.35;;;18.30;69.30;;;;;;5013170;28;20121;-81
2023/09/19 05:02:17;;;;;;;3.50;1.42;;;18.20;69.30;;;;;;4995919;28;20115;-81
2023/09/19 05:04:43;;;;;;;1.92;1.10;;;18.20;69.30;;;;;;4979431;28;20110;-81
2023/09/19 05:07:10;;;;;;;2.47;1.27;;;18.20;69.30;;;;;;4979608;28;20038;-80
2023/09/19 05:09:37;;;;;;;2.17;1.30;;;18.20;69.30;;;;;;4996394;28;20077;-80
2023/09/19 05:12:03;;;;;;;3.25;1.40;;;18.20;69.30;;;;;;4995571;28;20038;-80
2023/09/19 05:14:28;;;;;;;3.08;1.35;;;18.20;69.30;;;;;;4996057;28;20112;-80
2023/09/19 05:16:54;;;;;;;2.22;1.25;;;18.20;69.30;;;;;;4979913;28;20380;-79
2023/09/19 05:19:20;;;;;;;2.55;1.20;;;18.20;69.30;;;;;;4995841;28;20447;-80
2023/09/19 05:21:47;;;;;;;3.40;1.55;;;18.20;69.30;;;;;;4963335;28;20057;-81
2023/09/19 05:24:14;;;;;;;1.30;1.02;;;18.10;69.20;;;;;;5012158;28;20038;-80
2023/09/19 05:26:40;;;;;;;2.05;1.20;;;18.10;69.20;;;;;;4996013;28;20120;-80
2023/09/19 05:29:07;;;;;;;2.15;1.10;;;18.10;69.20;;;;;;4996069;28;20065;-80
2023/09/19 05:31:36;;;;;;;3.15;1.33;;;18.10;69.30;;;;;;5013073;28;20037;-80
2023/09/19 05:34:02;;;;;;;2.15;1.17;;;18.10;69.30;;;;;;5014014;28;20045;-79
2023/09/19 05:36:29;;;;;;;2.08;0.98;;;18.10;69.30;;;;;;4979956;28;20041;-78
2023/09/19 05:38:55;;;;;;;2.20;1.20;;;18.10;69.40;;;;;;5012528;28;20041;-79
2023/09/19 05:41:21;;;;;;;3.38;1.25;;;18.00;69.20;;;;;;5012391;28;20034;-79
2023/09/19 05:43:50;;;;;;;2.00;1.20;;;18.00;69.20;;;;;;4982914;28;20046;-79
2023/09/19 05:46:16;;;;;;;2.50;1.35;;;18.00;69.30;;;;;;4999204;28;20125;-79
2023/09/19 05:48:44;;;;;;;4.00;1.38;;;18.00;69.20;;;;;;5015716;28;20402;-79
2023/09/19 05:51:10;;;;;;;1.85;1.20;;;18.00;69.30;;;;;;5015399;28;20141;-77
2023/09/19 05:53:35;;;;;;;3.67;1.40;;;18.00;69.30;;;;;;4998784;28;20061;-79
2023/09/19 05:56:01;;;;;;;3.83;1.40;;;18.00;69.30;;;;;;5015476;28;20034;-80
2023/09/19 05:58:27;;;;;;;2.88;1.38;;;18.00;69.30;;;;;;4998900;28;20522;-79
2023/09/19 06:00:53;;;;;;;2.72;1.25;;;18.00;69.30;;;;;;5014859;28;20069;-80
2023/09/19 06:03:20;;;;;;;2.25;1.15;;;18.00;69.40;;;;;;4999239;28;20111;-80
2023/09/19 06:05:49;;;;;;;2.67;1.40;;;17.90;69.30;;;;;;5015742;28;20057;-79
2023/09/19 06:08:15;;;;;;;1.75;1.13;;;18.00;69.40;;;;;;4999252;28;20136;-79
2023/09/19 06:10:40;;;;;;;1.40;1.08;;;17.90;69.30;;;;;;4998790;28;20506;-80
2023/09/19 06:13:09;;;;;;;1.25;0.90;;;17.90;69.40;;;;;;4983776;28;20038;-82
2023/09/19 06:15:36;;;;;;;3.58;1.27;;;17.90;69.40;;;;;;4983600;28;20037;-80
2023/09/19 06:18:04;;;;;;;2.42;1.23;;;17.90;69.40;;;;;;5015648;28;20113;-78
2023/09/19 06:20:31;;;;;;;2.35;1.35;;;17.90;69.40;;;;;;4983305;28;20030;-79
2023/09/19 06:22:57;;;;;;;1.70;1.10;;;17.90;69.40;;;;;;4999900;28;20448;-80
2023/09/19 06:25:23;;;;;;;2.42;1.08;;;17.90;69.40;;;;;;5015505;28;20034;-80
2023/09/19 06:27:53;;;;;;;3.22;1.40;;;17.90;69.40;;;;;;4982714;28;20037;-80
2023/09/19 06:30:20;;;;;;;2.40;1.38;;;17.90;69.40;;;;;;5016291;28;20041;-79
2023/09/19 06:32:46;;;;;;;1.50;1.00;;;17.90;69.40;;;;;;4998866;28;20030;-79
2023/09/19 06:35:13;;;;;;;2.50;1.20;;;17.90;69.40;;;;;;4966924;28;20356;-79
2023/09/19 06:37:40;;;;;;;1.80;1.10;;;17.90;69.50;;;;;;4999163;28;20045;-79
2023/09/19 06:40:14;;;;;;;2.25;1.27;;;17.90;69.50;;;;;;5015781;28;20037;-79
2023/09/19 06:42:50;;;;;;;2.13;1.40;;;17.90;69.50;;;;;;5016031;28;20029;-79
2023/09/19 06:45:18;;;;;;;2.88;1.40;;;17.90;69.50;;;;;;4998545;28;20061;-79
2023/09/19 06:47:49;;;;;;;2.60;1.38;;;17.90;69.50;;;;;;4998901;28;20083;-79
2023/09/19 06:50:18;;;;;;;3.47;1.40;;;17.90;69.60;;;;;;5014719;28;20116;-78
2023/09/19 06:52:47;;;;;;;3.53;1.20;;;17.90;69.50;;;;;;5013288;28;20025;-80
2023/09/19 06:55:16;;;;;;;4.07;1.30;;;17.90;69.60;;;;;;5014956;28;20029;-79
2023/09/19 06:57:43;;;;;;;2.72;1.50;;;17.90;69.60;;;;;;4997939;28;20041;-79
2023/09/19 07:00:18;;;;;;;3.05;1.17;;;17.90;69.60;;;;;;4981639;28;20029;-79
2023/09/19 07:02:56;;;;;;;1.70;1.02;;;17.90;69.60;;;;;;4999099;28;20112;-78
2023/09/19 07:05:22;;;;;;;2.72;1.33;;;17.90;69.60;;;;;;4997978;28;20034;-79
2023/09/19 07:07:48;;;;;;;2.72;1.33;;;17.90;69.50;;;;;;4998498;28;20482;-81
2023/09/19 07:10:14;;;;;;;2.70;1.30;;;17.90;69.60;;;;;;4981777;28;20022;-81
2023/09/19 07:12:41;;;;;;;3.20;1.13;;;17.90;69.70;;;;;;4997663;28;20037;-80
2023/09/19 07:15:07;;;;;;;2.72;1.15;;;17.90;69.70;;;;;;4981353;28;20030;-81
2023/09/19 07:17:33;;;;;;;3.00;1.17;;;17.90;69.70;;;;;;4997471;28;20473;-78
2023/09/19 07:19:59;;;;;;;1.92;1.10;;;17.90;69.70;;;;;;4998294;28;20477;-79
2023/09/19 07:22:28;;;;;;;3.58;1.40;;;17.90;69.70;;;;;;4997335;28;20034;-82
2023/09/19 07:24:54;;;;;;;1.70;1.10;;;17.90;69.70;;;;;;5014690;28;20036;-79
2023/09/19 07:27:20;;;;;;;2.75;1.38;;;17.90;69.70;;;;;;4997328;28;20419;-79
2023/09/19 07:29:46;;;;;;;3.80;1.33;;;17.90;69.70;;;;;;4980990;28;20130;-79
2023/09/19 07:32:11;;;;;;;2.85;1.33;;;17.90;69.70;;;;;;5013628;28;20030;-79
2023/09/19 07:34:40;;;;;;;1.90;1.02;;;18.00;69.70;;;;;;4997783;28;20120;-79
2023/09/19 07:37:06;;;;;;;3.03;1.70;;;17.90;69.70;;;;;;4997128;28;20034;-79
2023/09/19 07:39:32;;;;;;;2.95;1.40;;;18.00;69.70;;;;;;5013436;28;20041;-80
2023/09/19 07:41:58;;;;;;;1.80;1.00;;;18.00;69.70;;;;;;4997041;28;20497;-80
2023/09/19 07:44:25;;;;;;;2.88;1.13;;;18.00;69.70;;;;;;5013154;28;20089;-80
2023/09/19 07:46:52;;;;;;;3.22;1.38;;;18.00;69.70;;;;;;4997514;28;20041;-80
2023/09/19 07:49:17;;;;;;;2.55;1.17;;;18.00;69.70;;;;;;5014570;28;20034;-80
2023/09/19 07:51:47;;;;;;;2.40;1.13;;;18.00;69.70;;;;;;4981068;28;20041;-79
2023/09/19 07:54:14;;;;;;;2.90;1.17;;;18.00;69.70;;;;;;5013370;28;20077;-79
2023/09/19 07:56:40;;;;;;;1.77;1.20;;;18.00;69.80;;;;;;5014458;28;20034;-80
2023/09/19 07:59:06;;;;;;;3.88;1.20;;;18.00;70.40;;;;;;4980392;28;20037;-79
2023/09/19 08:01:33;;;;;;;3.03;1.35;;;18.10;69.80;;;;;;4997535;28;20041;-80
2023/09/19 08:03:58;;;;;;;2.25;1.17;;;18.10;69.80;;;;;;4980420;28;20036;-78
2023/09/19 08:06:24;;;;;;;2.88;1.25;;;18.10;69.80;;;;;;4964448;28;20026;-82
2023/09/19 08:08:54;;;;;;;2.35;1.20;;;18.10;69.70;;;;;;4996213;28;20124;-79
2023/09/19 08:11:21;;;;;;;2.75;1.20;;;18.10;69.80;;;;;;4981299;28;20042;-79
2023/09/19 08:13:48;;;;;;;3.03;1.27;;;18.10;69.70;;;;;;4948218;28;20379;-79
2023/09/19 08:16:15;;;;;;;2.03;1.17;;;18.20;69.80;;;;;;5013855;28;20474;-79
2023/09/19 08:18:41;;;;;;;2.97;1.20;;;18.20;69.80;;;;;;4980172;28;20108;-81
2023/09/19 08:21:11;;;;;;;3.83;1.60;;;18.10;69.70;;;;;;4964395;28;20501;-79
2023/09/19 08:23:38;;;;;;;1.92;1.25;;;18.20;69.80;;;;;;4996470;28;20451;-79
2023/09/19 08:26:07;;;;;;;3.53;1.52;;;18.20;69.80;;;;;;4996643;28;20095;-79
2023/09/19 08:28:36;;;;;;;3.53;1.30;;;18.30;69.80;;;;;;4980369;28;20030;-80
2023/09/19 08:31:07;;;;;;;3.70;1.30;;;18.30;69.80;;;;;;4996507;28;20156;-80
2023/09/19 08:33:33;;;;;;;2.35;1.20;;;18.30;70.10;;;;;;5014186;28;20085;-80
2023/09/19 08:35:59;;;;;;;2.53;1.27;;;18.30;69.80;;;;;;4996689;28;20032;-79
2023/09/19 08:38:29;;;;;;;2.72;1.35;;;18.30;69.80;;;;;;4963969;28;20037;-80
2023/09/19 08:40:59;;;;;;;3.53;1.45;;;18.30;69.80;;;;;;5012254;28;20042;-79
2023/09/19 08:43:25;;;;;;;2.60;1.33;;;18.30;69.90;;;;;;4996481;28;20041;-79
2023/09/19 08:46:03;;;;;;;3.80;1.50;;;18.40;69.80;;;;;;4995987;28;20450;-80
2023/09/19 08:48:30;;;;;;;2.63;1.38;;;18.40;69.90;;;;;;4996941;28;20026;-80
2023/09/19 08:51:14;;;;;;;4.38;1.50;;;18.50;69.80;;;;;;4980658;28;20096;-80
2023/09/19 08:54:04;;;;;;;2.17;1.25;;;18.50;69.80;;;;;;5012863;28;20061;-79
2023/09/19 08:56:32;;;;;;;3.20;1.30;;;18.50;69.80;;;;;;5014548;28;20030;-79
2023/09/19 08:59:07;;;;;;;3.70;1.38;;;18.50;69.70;;;;;;5013573;28;20033;-80
2023/09/19 09:01:33;;;;;;;2.28;1.35;;;18.60;69.80;;;;;;5013366;28;20046;-81
2023/09/19 09:03:59;;;;;;;2.90;1.40;;;18.60;69.60;;;;;;4996166;28;20053;-80
2023/09/19 09:06:27;;;;;;;2.70;1.25;;;18.60;69.60;;;;;;4995746;28;20057;-79
2023/09/19 09:08:54;;;;;;;3.70;1.45;;;18.70;69.60;;;;;;4995748;28;20034;-80
2023/09/19 09:11:20;;;;;;;2.42;1.48;;;18.70;69.60;;;;;;5013828;28;20112;-79
2023/09/19 09:13:47;;;;;;;2.15;1.27;;;18.80;69.60;;;;;;4980641;28;20096;-79
2023/09/19 09:16:18;;;;;;;3.95;1.75;;;18.80;69.50;;;;;;4996114;28;20041;-80
2023/09/19 09:18:45;;;;;;;4.43;1.70;;;18.90;69.50;;;;;;4999821;28;20025;-79
2023/09/19 09:21:15;;;;;;;2.47;1.60;;;18.90;69.50;;;;;;4999588;28;20044;-82
2023/09/19 09:23:41;;;;;;;2.40;1.17;;;18.90;69.40;;;;;;5000597;28;20386;-80
2023/09/19 09:26:09;;;;;;;3.00;1.40;;;18.90;69.30;;;;;;5017429;28;20026;-81
2023/09/19 09:28:37;;;;;;;3.50;1.65;;;19.00;69.30;;;;;;5000163;28;20113;-79
2023/09/19 09:31:07;;;;;;;2.08;1.02;;;19.10;69.20;;;;;;4983620;28;20030;-80
2023/09/19 09:33:34;;;;;;;3.38;1.30;;;19.10;69.20;;;;;;4984220;28;20038;-79
2023/09/19 09:36:02;;;;;;;3.92;1.40;;;19.10;69.00;;;;;;4999904;28;20072;-79
2023/09/19 09:38:32;;;;;;;2.30;1.25;;;19.20;69.10;;;;;;5015898;28;20033;-81
2023/09/19 09:41:02;;;;;;;2.78;1.48;;;19.20;69.00;;;;;;4999973;28;20076;-80
2023/09/19 09:43:35;;;;;;;2.72;1.10;;;19.30;68.90;;;;;;5017552;28;20053;-79
2023/09/19 09:46:55;;;;;;;2.73;1.27;;;19.40;68.90;;;;;;4999365;28;20407;-80
2023/09/19 09:51:57;;;;;;;3.25;1.30;;;19.50;68.60;;;;;;5015510;28;20038;-80
2023/09/19 09:54:27;;;;;;;1.98;1.20;;;19.50;68.60;;;;;;4998906;28;20042;-81
2023/09/19 09:56:59;;;;;;;2.08;1.40;;;19.60;68.60;;;;;;4999773;28;20041;-80
2023/09/19 09:59:46;;;;;;;3.53;1.30;;;19.70;68.60;;;;;;5016537;28;20049;-80
2023/09/19 10:02:17;;;;;;;3.63;1.20;;;19.70;68.50;;;;;;5015180;28;20084;-81
2023/09/19 10:04:51;;;;;;;3.25;1.30;;;19.80;68.50;;;;;;5016229;28;20060;-80
2023/09/19 10:07:30;;;;;;;;;;;19.80;68.40;;;;;;5001322;28;20080;-82
2023/09/19 10:10:06;;;;;;;1.88;1.15;;;19.90;68.20;;;;;;5016051;28;19951;-83
2023/09/19 10:12:38;;;;;;;3.47;1.38;;;20.00;68.10;;;;;;4998575;28;20033;-78
2023/09/19 10:15:06;;;;;;;3.65;1.40;;;20.00;68.10;;;;;;5015692;28;20038;-78
2023/09/19 10:17:36;;;;;;;3.75;1.38;;;20.10;68.10;;;;;;4998829;28;20032;-82
2023/09/19 10:20:09;;;;;;;4.03;1.40;;;20.10;68.00;;;;;;5015551;28;20037;-83
2023/09/19 10:22:36;;;;;;;3.38;1.63;;;20.20;68.00;;;;;;4998955;28;20032;-83
2023/09/19 10:25:07;;;;;;;2.55;1.45;;;20.30;68.00;;;;;;4967272;28;20087;-82
2023/09/19 10:27:37;;;;;;;3.35;1.50;;;20.40;68.00;;;;;;4982725;28;20033;-84
2023/09/19 10:30:07;;;;;;;3.47;1.75;;;20.40;67.80;;;;;;4999736;28;20034;-83
2023/09/19 10:32:35;;;;;;;3.22;1.25;;;20.50;67.80;;;;;;4998427;28;20034;-84
2023/09/19 10:35:05;;;;;;;2.67;1.17;;;20.50;67.70;;;;;;4998978;28;20026;-83
2023/09/19 10:37:32;;;;;;;2.38;1.25;;;20.60;67.70;;;;;;5014741;28;20087;-82
2023/09/19 10:39:58;;;;;;;2.47;1.02;;;20.70;67.60;;;;;;4998677;28;20038;-83
2023/09/19 10:42:29;;;;;;;1.67;1.10;;;20.70;67.50;;;;;;4968240;28;20471;-81
2023/09/19 10:44:59;;;;;;;1.88;1.10;;;20.80;67.50;;;;;;4987862;28;20046;-82
2023/09/19 10:47:26;;;;;;;3.33;1.58;;;20.80;67.50;;;;;;4988696;28;20125;-79
2023/09/19 10:49:52;;;;;;;3.22;1.00;;;20.90;67.50;;;;;;4997648;28;20038;-83
2023/09/19 10:52:23;;;;;;;1.60;1.10;;;20.90;67.40;;;;;;4995989;28;20039;-83
2023/09/19 10:54:54;;;;;;;3.13;1.60;;;20.90;67.40;;;;;;4995902;28;20037;-82
2023/09/19 10:57:27;;;;;;;3.95;1.20;;;21.00;67.40;;;;;;4996106;28;20034;-82
2023/09/19 11:00:26;;;;;;;3.45;1.50;;;21.10;67.40;;;;;;4995817;28;20077;-82
2023/09/19 11:03:11;;;;;;;2.35;1.40;;;21.10;67.40;;;;;;4995423;28;20042;-84
2023/09/19 11:05:40;;;;;;;2.70;1.15;;;21.10;67.40;;;;;;4984544;28;20042;-90
2023/09/19 11:08:11;;;;;;;2.75;1.25;;;21.20;67.40;;;;;;4995412;28;20022;-84
2023/09/19 11:10:50;;;;;;;3.00;1.25;;;21.20;67.40;;;;;;4994550;28;20102;-84
2023/09/19 11:13:36;;;;;;;2.45;1.23;;;21.20;67.40;;;;;;4994158;28;20133;-82
2023/09/19 11:16:04;;;;;;;2.30;1.20;;;21.30;67.40;;;;;;4995501;28;20125;-82
2023/09/19 11:18:42;;;;;;;1.95;1.08;;;21.30;67.40;;;;;;4993997;28;20038;-82
2023/09/19 11:21:33;;;;;;;2.85;1.10;;;21.30;67.50;;;;;;5010629;28;20038;-81
2023/09/19 11:24:22;;;;;;;2.35;1.13;;;21.40;67.50;;;;;;5010720;28;20050;-82
2023/09/19 11:26:49;;;;;;;2.92;1.50;;;21.40;67.50;;;;;;5009951;28;20037;-80
2023/09/19 11:29:29;;;;;;;2.63;1.33;;;21.40;67.40;;;;;;4993683;28;20034;-83
2023/09/19 11:31:59;;;;;;;2.65;1.38;;;21.40;67.40;;;;;;5010444;28;20034;-83
2023/09/19 11:34:37;;;;;;;2.40;1.30;;;21.40;67.30;;;;;;4995339;28;20121;-84
2023/09/19 11:37:24;;;;;;;2.50;1.08;;;21.50;67.40;;;;;;4994357;28;20111;-83
2023/09/19 11:40:09;;;;;;;3.08;1.58;;;21.50;67.30;;;;;;4950506;28;20173;-83
2023/09/19 11:42:49;;;;;;;1.88;1.15;;;21.50;67.30;;;;;;5010382;28;20486;-82
2023/09/19 11:45:46;;;;;;;4.25;1.45;;;21.60;67.30;;;;;;5010196;28;20042;-82
2023/09/19 11:48:18;;;;;;;3.08;1.50;;;21.60;67.30;;;;;;5010421;28;20050;-82
2023/09/19 11:50:47;;;;;;;1.60;1.02;;;21.60;67.20;;;;;;5009850;28;20031;-83
2023/09/19 11:53:16;;;;;;;1.95;1.10;;;21.60;67.10;;;;;;4993670;28;20040;-81
2023/09/19 11:55:45;;;;;;;2.40;1.13;;;21.60;67.10;;;;;;4993507;28;20479;-80
2023/09/19 11:58:14;;;;;;;2.75;1.70;;;21.60;67.00;;;;;;4992978;28;20034;-81
2023/09/19 12:00:43;;;;;;;2.50;1.33;;;21.70;67.10;;;;;;5009501;28;20026;-83
2023/09/19 12:03:14;;;;;;;3.00;1.60;;;21.70;67.00;;;;;;4994141;28;20034;-81
2023/09/19 12:05:40;;;;;;;2.92;1.30;;;21.70;67.00;;;;;;4994381;28;20034;-82
2023/09/19 12:08:08;;;;;;;3.58;1.45;;;21.70;67.00;;;;;;4994010;28;20053;-81
2023/09/19 12:10:57;;;;;;;2.83;1.30;;;21.80;67.00;;;;;;4993656;28;20034;-81
2023/09/19 12:13:24;;;;;;;2.58;1.00;;;21.80;67.00;;;;;;4982737;28;20041;-82
2023/09/19 12:15:49;;;;;;;3.10;1.30;;;21.80;66.90;;;;;;5011772;28;20530;-82
2023/09/19 12:18:31;;;;;;;3.67;1.20;;;21.80;66.90;;;;;;4977742;28;20034;-82
2023/09/19 12:20:58;;;;;;;2.30;1.13;;;21.90;67.00;;;;;;4976994;28;20035;-81
2023/09/19 12:23:25;;;;;;;1.77;1.00;;;21.90;66.80;;;;;;4993020;28;20497;-83
2023/09/19 12:25:53;;;;;;;2.08;1.15;;;21.90;66.80;;;;;;4993356;28;20083;-83
2023/09/19 12:28:22;;;;;;;2.53;1.05;;;22.00;66.90;;;;;;4992929;28;20048;-83
2023/09/19 12:30:48;;;;;;;2.53;1.10;;;22.00;66.80;;;;;;4961541;28;20495;-83
2023/09/19 12:33:25;;;;;;;2.72;1.27;;;22.00;66.80;;;;;;4992836;28;20027;-83
2023/09/19 12:35:53;;;;;;;1.77;1.10;;;22.10;66.80;;;;;;4976954;28;20031;-83
2023/09/19 12:38:32;;;;;;;2.15;1.15;;;22.00;66.70;;;;;;5009303;28;20042;-83
2023/09/19 12:41:00;;;;;;;2.50;1.17;;;22.10;66.80;;;;;;5009168;28;20121;-84
2023/09/19 12:43:28;;;;;;;2.45;1.05;;;22.10;66.70;;;;;;5009325;28;20038;-83
2023/09/19 12:45:54;;;;;;;1.85;1.10;;;22.10;66.70;;;;;;4993160;28;20085;-83
2023/09/19 12:48:31;;;;;;;2.35;1.10;;;22.10;66.60;;;;;;4993135;28;20437;-83
2023/09/19 12:51:12;;;;;;;2.15;1.08;;;22.10;66.60;;;;;;4978851;28;20030;-83
2023/09/19 12:53:43;;;;;;;1.75;0.90;;;22.20;66.50;;;;;;5013844;28;20117;-84
2023/09/19 12:56:14;;;;;;;2.05;0.93;;;22.20;66.50;;;;;;4998453;28;20030;-83
2023/09/19 12:58:49;;;;;;;1.10;1.00;;;22.20;66.40;;;;;;4996966;28;20036;-83
2023/09/19 13:01:16;;;;;;;1.13;0.80;;;22.30;66.50;;;;;;5013595;28;20115;-82
2023/09/19 13:03:41;;;;;;;1.98;1.00;;;22.30;66.40;;;;;;4997451;28;20035;-82